OAKB/KBL METAR and TAF weather

Enter ICAO airport designator
Station Type Date Time Source
OAKB METAR 2019/10/15 20:50 UTC NOAA

OAKB 152050Z 30003KT 9000 NSC 11/01 Q1025 NOSIG RMK A3028 BLU BLU


Station Type Date Time Source
OAKB Decoded METAR 2019/10/15 20:50 UTC NOAA

Kabul Airport, Afghanistan (OAKB) 34-38N 069-12E
Oct 15, 2019 - 04:50 PM EDT / 2019.10.15 2050 UTC
Wind: from the WNW (300 degrees) at 3 MPH (3 KT):0
Visibility: 5 mile(s):0
Temperature: 51 F (11 C)
Dew Point: 33 F (1 C)
Relative Humidity: 50%
Pressure (altimeter): 30.27 in. Hg (1025 hPa)
ob: OAKB 152050Z 30003KT 9000 NSC 11/01 Q1025 NOSIG RMK A3028 BLU BLU
cycle: 21

Station Type Date Time Source
OAKB TAF 2019/10/15 18:05 UTC NOAA

TAF OAKB 151705Z 1518/1618 VRB02KT 7000 NSC PROB30 1523/1604 4000 HZ
BECMG 1604/1607 CAVOK
TEMPO 1609/1615 07010KT FEW080

Example: see airport list